Time;durP1;ratioP1;P1;durP2;ratioP2;P2;SDS_P1;SDS_P2;PMS_P1;PMS_P2;Temp;Humidity;BMP_temperature;BMP_pressure;BME280_temperature;BME280_humidity;BME280_pressure;Samples;Min_cycle;Max_cycle;Signal;HPM_P1;HPM_P2
2020/12/14 00:00:12;;;;;;;5.88;1.40;;;17.60;16.80;;;;;;5068712;28;20077;-62
2020/12/14 00:02:39;;;;;;;9.43;1.77;;;17.50;16.80;;;;;;5068502;28;20107;-63
2020/12/14 00:05:07;;;;;;;5.38;1.48;;;17.40;17.60;;;;;;5071797;28;20089;-63
2020/12/14 00:07:34;;;;;;;3.35;1.60;;;17.30;18.40;;;;;;5069556;28;20097;-63
2020/12/14 00:10:01;;;;;;;3.83;1.35;;;17.30;18.70;;;;;;5071633;28;20077;-64
2020/12/14 00:12:29;;;;;;;3.63;1.13;;;17.20;18.40;;;;;;5068977;28;20418;-64
2020/12/14 00:14:55;;;;;;;2.58;1.15;;;17.10;18.30;;;;;;5051215;28;20085;-63
2020/12/14 00:17:21;;;;;;;;;;;17.00;18.70;;;;;;5051527;28;20077;-63
2020/12/14 00:19:49;;;;;;;1.48;1.20;;;17.00;20.20;;;;;;5070044;28;19964;-62
2020/12/14 00:22:16;;;;;;;4.50;1.10;;;16.90;19.50;;;;;;5050067;28;20079;-63
2020/12/14 00:24:43;;;;;;;5.50;1.30;;;16.70;19.40;;;;;;5035173;28;20109;-64
2020/12/14 00:27:11;;;;;;;;;;;16.60;20.40;;;;;;5051353;28;20108;-64
2020/12/14 00:29:38;;;;;;;7.00;1.77;;;16.50;20.10;;;;;;5052287;28;19985;-63
2020/12/14 00:32:04;;;;;;;4.28;1.50;;;16.30;21.80;;;;;;5069493;28;20077;-63
2020/12/14 00:34:30;;;;;;;;;;;16.30;20.80;;;;;;5069416;28;20084;-65
2020/12/14 00:36:57;;;;;;;9.88;1.42;;;16.10;20.10;;;;;;5048576;28;19961;-63
2020/12/14 00:39:24;;;;;;;2.17;1.40;;;16.00;20.30;;;;;;5071633;28;20065;-63
2020/12/14 00:41:50;;;;;;;2.20;1.55;;;15.90;20.50;;;;;;5068717;28;20127;-63
2020/12/14 00:44:17;;;;;;;6.72;2.85;;;15.80;20.80;;;;;;5068757;28;20432;-62
2020/12/14 00:46:44;;;;;;;;;;;15.70;21.40;;;;;;5070742;28;20112;-63
2020/12/14 00:49:10;;;;;;;5.13;2.63;;;15.60;22.10;;;;;;5071487;28;20003;-63
2020/12/14 00:51:36;;;;;;;;;;;15.50;22.10;;;;;;5069408;28;20080;-63
2020/12/14 00:54:03;;;;;;;11.23;2.72;;;15.40;23.50;;;;;;5068859;28;20459;-62
2020/12/14 00:56:29;;;;;;;8.32;3.35;;;15.30;23.50;;;;;;5069332;28;20088;-63
2020/12/14 00:58:57;;;;;;;15.27;5.03;;;15.20;23.70;;;;;;5069578;28;20119;-62
2020/12/14 01:01:24;;;;;;;13.80;5.50;;;15.10;24.60;;;;;;5050536;28;20134;-62
2020/12/14 01:03:53;;;;;;;26.88;10.73;;;15.10;24.40;;;;;;5050993;28;20124;-62
2020/12/14 01:06:20;;;;;;;25.85;9.95;;;15.00;25.60;;;;;;5068317;28;20174;-63
2020/12/14 01:08:46;;;;;;;21.73;8.95;;;14.90;26.20;;;;;;5052597;28;20081;-63
2020/12/14 01:11:15;;;;;;;20.48;8.85;;;14.80;26.00;;;;;;5072980;28;20104;-64
2020/12/14 01:13:45;;;;;;;27.65;8.77;;;14.80;26.20;;;;;;5073361;28;20128;-64
2020/12/14 01:16:12;;;;;;;23.38;8.77;;;14.70;27.30;;;;;;5056780;28;20539;-64
2020/12/14 01:18:38;;;;;;;26.40;8.68;;;14.60;27.60;;;;;;5073604;28;20069;-64
2020/12/14 01:21:08;;;;;;;18.92;8.25;;;14.50;27.70;;;;;;5072531;28;20580;-64
2020/12/14 01:23:34;;;;;;;19.08;8.38;;;14.40;27.60;;;;;;5072552;28;20077;-63
2020/12/14 01:26:01;;;;;;;;;;;14.30;28.30;;;;;;5054444;28;20073;-63
2020/12/14 01:28:28;;;;;;;31.77;8.85;;;14.20;28.00;;;;;;5060955;28;20357;-63
2020/12/14 01:30:54;;;;;;;42.15;10.38;;;14.20;28.40;;;;;;5059766;28;20072;-64
2020/12/14 01:33:26;;;;;;;;;;;14.00;28.60;;;;;;5056290;28;20085;-64
2020/12/14 01:35:52;;;;;;;27.10;10.25;;;14.00;28.50;;;;;;5060340;28;19961;-64
2020/12/14 01:38:21;;;;;;;35.05;10.98;;;13.90;28.10;;;;;;5044590;28;20478;-63
2020/12/14 01:40:48;;;;;;;27.55;9.90;;;13.90;27.90;;;;;;5059172;28;20089;-64
2020/12/14 01:43:17;;;;;;;26.05;9.98;;;13.80;27.70;;;;;;5042551;28;20073;-63
2020/12/14 01:45:46;;;;;;;29.45;10.63;;;13.80;27.90;;;;;;5052981;28;20476;-64
2020/12/14 01:48:13;;;;;;;29.75;10.60;;;13.70;28.30;;;;;;5057934;28;20129;-63
2020/12/14 01:50:40;;;;;;;27.23;10.07;;;13.60;28.10;;;;;;5057042;28;20076;-64
2020/12/14 01:53:07;;;;;;;25.50;10.10;;;13.50;27.90;;;;;;5060665;28;20131;-63
2020/12/14 01:55:43;;;;;;;25.38;10.85;;;13.50;28.40;;;;;;5057474;28;20556;-65
2020/12/14 01:58:10;;;;;;;27.42;10.50;;;13.40;29.00;;;;;;5055053;28;20073;-67
2020/12/14 02:00:37;;;;;;;25.85;11.35;;;13.40;29.40;;;;;;5058328;28;20445;-66
2020/12/14 02:03:03;;;;;;;;;;;13.30;29.30;;;;;;5058884;28;20069;-66
2020/12/14 02:05:29;;;;;;;31.90;11.73;;;13.30;29.00;;;;;;5055767;28;19980;-66
2020/12/14 02:07:56;;;;;;;32.47;12.55;;;13.20;29.40;;;;;;5054370;28;20078;-66
2020/12/14 02:10:22;;;;;;;;;;;13.20;29.80;;;;;;5057629;28;20088;-66
2020/12/14 02:12:49;;;;;;;38.55;14.93;;;13.10;30.20;;;;;;5053387;28;19964;-66
2020/12/14 02:15:15;;;;;;;;;;;13.00;31.00;;;;;;5052377;28;20069;-65
2020/12/14 02:17:41;;;;;;;41.40;17.40;;;13.00;31.10;;;;;;5053868;28;19957;-64
2020/12/14 02:20:08;;;;;;;61.60;21.95;;;12.70;30.60;;;;;;5055039;28;20152;-65
2020/12/14 02:22:34;;;;;;;47.58;19.35;;;12.80;30.90;;;;;;5053187;28;20081;-65
2020/12/14 02:25:05;;;;;;;;;;;12.80;31.40;;;;;;5059322;28;20105;-65
2020/12/14 02:27:33;;;;;;;55.85;24.92;;;12.70;30.90;;;;;;5060209;28;19988;-64
2020/12/14 02:30:02;;;;;;;58.45;29.42;;;12.70;31.00;;;;;;5071068;28;20232;-66
2020/12/14 02:32:29;;;;;;;60.95;26.73;;;12.60;31.00;;;;;;5071985;28;20073;-65
2020/12/14 02:34:57;;;;;;;46.58;25.08;;;12.60;32.20;;;;;;5070906;28;20160;-66
2020/12/14 02:37:26;;;;;;;53.47;23.88;;;12.60;31.60;;;;;;5072215;28;20154;-66
2020/12/14 02:39:52;;;;;;;55.83;21.58;;;12.60;31.60;;;;;;5072634;28;20107;-65
2020/12/14 02:42:21;;;;;;;44.08;19.80;;;12.50;31.60;;;;;;5072997;28;20079;-66
2020/12/14 02:44:48;;;;;;;31.27;13.35;;;12.40;31.60;;;;;;5071706;28;20101;-65
2020/12/14 02:47:15;;;;;;;29.30;10.40;;;12.30;31.10;;;;;;5071565;28;20077;-65
2020/12/14 02:49:42;;;;;;;27.50;8.68;;;12.20;30.00;;;;;;5075567;28;20073;-65
2020/12/14 02:52:10;;;;;;;23.92;8.13;;;12.20;28.90;;;;;;5072912;28;20069;-65
2020/12/14 02:54:37;;;;;;;34.22;12.30;;;12.20;29.60;;;;;;5072086;28;20065;-66
2020/12/14 02:57:04;;;;;;;29.88;13.38;;;12.20;30.00;;;;;;5053892;28;20118;-65
2020/12/14 02:59:31;;;;;;;37.38;13.10;;;12.20;30.30;;;;;;5069829;28;20069;-65
2020/12/14 03:01:57;;;;;;;;;;;12.20;32.70;;;;;;5053514;28;20104;-65
2020/12/14 03:04:24;;;;;;;28.08;13.02;;;12.20;33.80;;;;;;5072444;28;19977;-64
2020/12/14 03:06:51;;;;;;;34.65;14.85;;;12.10;33.50;;;;;;5070725;28;20073;-67
2020/12/14 03:09:19;;;;;;;36.40;15.85;;;12.10;33.00;;;;;;5072268;28;20421;-65
2020/12/14 03:11:48;;;;;;;50.45;17.98;;;12.00;32.70;;;;;;5069047;28;20414;-65
2020/12/14 03:14:14;;;;;;;55.35;21.35;;;12.00;33.20;;;;;;5051922;28;21082;-64
2020/12/14 03:16:43;;;;;;;45.92;18.95;;;11.90;34.80;;;;;;5069947;28;20072;-66
2020/12/14 03:19:09;;;;;;;54.85;19.60;;;12.00;34.60;;;;;;5071727;28;20077;-65
2020/12/14 03:21:36;;;;;;;;;;;11.90;34.70;;;;;;5070241;28;20069;-65
2020/12/14 03:24:02;;;;;;;51.40;19.35;;;11.90;35.10;;;;;;5071091;28;19983;-65
2020/12/14 03:26:33;;;;;;;54.15;18.33;;;11.90;35.50;;;;;;5053964;28;20092;-66
2020/12/14 03:29:00;;;;;;;52.35;18.42;;;11.90;35.20;;;;;;5058986;28;20077;-66
2020/12/14 03:31:27;;;;;;;51.45;18.83;;;11.90;36.00;;;;;;5059944;28;20132;-66
2020/12/14 03:33:55;;;;;;;48.58;17.92;;;11.90;35.90;;;;;;5040517;28;20078;-66
2020/12/14 03:36:23;;;;;;;56.20;18.25;;;11.90;35.40;;;;;;5035425;28;20113;-66
2020/12/14 03:38:54;;;;;;;53.47;19.55;;;11.80;34.80;;;;;;5039522;28;20085;-65
2020/12/14 03:41:22;;;;;;;47.53;17.48;;;11.80;35.00;;;;;;5056995;28;20146;-66
2020/12/14 03:43:52;;;;;;;69.40;18.52;;;11.80;35.20;;;;;;5056208;28;20121;-66
2020/12/14 03:46:21;;;;;;;61.47;19.48;;;11.80;34.50;;;;;;5057346;28;20525;-65
2020/12/14 03:48:48;;;;;;;56.47;19.92;;;11.70;35.40;;;;;;5056814;28;20076;-66
2020/12/14 03:51:15;;;;;;;59.28;18.27;;;11.60;35.30;;;;;;5060711;28;20092;-65
2020/12/14 03:53:41;;;;;;;63.03;18.85;;;11.50;34.80;;;;;;5055954;28;20082;-66
2020/12/14 03:56:07;;;;;;;;;;;11.60;34.70;;;;;;5053423;28;20065;-66
2020/12/14 03:58:34;;;;;;;58.35;21.38;;;11.50;35.70;;;;;;5038138;28;20475;-66
2020/12/14 04:01:00;;;;;;;68.75;21.38;;;11.50;35.40;;;;;;5060414;28;20073;-66
2020/12/14 04:03:27;;;;;;;92.43;28.60;;;11.50;35.50;;;;;;5059292;28;20080;-66
2020/12/14 04:05:54;;;;;;;87.05;25.38;;;11.50;36.00;;;;;;5055956;28;20108;-66
2020/12/14 04:08:20;;;;;;;;;;;11.50;35.80;;;;;;5058283;28;20080;-65
2020/12/14 04:10:46;;;;;;;81.13;27.58;;;11.40;36.90;;;;;;5076984;28;19963;-65
2020/12/14 04:13:13;;;;;;;82.53;27.33;;;11.40;36.10;;;;;;5062004;28;20105;-66
2020/12/14 04:15:39;;;;;;;;;;;11.40;36.00;;;;;;5058811;28;20555;-65
2020/12/14 04:18:06;;;;;;;82.60;25.80;;;11.40;37.50;;;;;;5052222;28;19965;-66
2020/12/14 04:20:32;;;;;;;;;;;11.40;37.50;;;;;;5052340;28;20164;-66
2020/12/14 04:22:58;;;;;;;85.15;27.70;;;11.40;37.80;;;;;;5059764;28;20018;-66
2020/12/14 04:25:25;;;;;;;77.88;26.55;;;11.40;37.60;;;;;;5053949;28;20138;-65
2020/12/14 04:27:51;;;;;;;;;;;11.40;37.60;;;;;;5052371;28;20115;-67
2020/12/14 04:30:18;;;;;;;80.10;26.25;;;11.30;37.50;;;;;;5052697;28;20426;-66
2020/12/14 04:32:46;;;;;;;77.47;27.63;;;11.30;37.40;;;;;;5070092;28;20077;-66
2020/12/14 04:35:12;;;;;;;83.60;27.40;;;11.30;37.80;;;;;;5068652;28;20527;-66
2020/12/14 04:37:38;;;;;;;;;;;11.30;38.50;;;;;;5070303;28;20411;-66
2020/12/14 04:40:05;;;;;;;85.30;27.13;;;11.30;37.60;;;;;;5052803;28;19964;-66
2020/12/14 04:42:32;;;;;;;80.90;27.13;;;11.30;37.40;;;;;;5068972;28;20084;-68
2020/12/14 04:44:59;;;;;;;73.93;25.92;;;11.30;38.00;;;;;;5067521;28;20104;-66
2020/12/14 04:47:28;;;;;;;78.47;29.02;;;11.30;37.40;;;;;;5067236;28;20075;-66
2020/12/14 04:49:58;;;;;;;82.18;29.10;;;11.30;38.30;;;;;;5071150;28;20081;-66
2020/12/14 04:52:25;;;;;;;88.50;32.42;;;11.30;38.00;;;;;;5069551;28;20061;-66
2020/12/14 04:54:52;;;;;;;;;;;11.30;37.80;;;;;;5068897;28;20069;-66
2020/12/14 04:57:24;;;;;;;103.97;32.75;;;11.30;38.40;;;;;;5068861;28;19957;-66
2020/12/14 04:59:51;;;;;;;90.05;33.33;;;11.20;38.80;;;;;;5068113;28;20453;-66
2020/12/14 05:02:18;;;;;;;101.03;34.75;;;11.20;38.50;;;;;;5069812;28;20080;-66
2020/12/14 05:04:45;;;;;;;114.63;35.58;;;11.20;39.50;;;;;;5069187;28;20180;-66
2020/12/14 05:07:15;;;;;;;102.22;35.85;;;11.10;40.00;;;;;;5083486;28;20080;-66
2020/12/14 05:09:42;;;;;;;104.68;34.95;;;11.10;38.60;;;;;;5069000;28;20475;-65
2020/12/14 05:12:26;;;;;;;116.35;35.28;;;11.10;38.90;;;;;;5066257;28;20112;-66
2020/12/14 05:14:53;;;;;;;92.70;33.28;;;11.10;39.30;;;;;;5067531;28;20088;-66
2020/12/14 05:17:25;;;;;;;116.68;35.38;;;11.10;38.50;;;;;;5069837;28;20474;-61
2020/12/14 05:19:53;;;;;;;97.00;35.97;;;11.20;39.10;;;;;;5067441;28;20159;-61
2020/12/14 05:22:19;;;;;;;103.28;38.03;;;11.10;39.30;;;;;;5068961;28;20081;-61
2020/12/14 05:24:52;;;;;;;115.10;36.88;;;11.10;39.10;;;;;;5051318;28;20155;-61
2020/12/14 05:27:34;;;;;;;95.47;37.15;;;11.10;39.00;;;;;;5063555;28;20220;-60
2020/12/14 05:30:14;;;;;;;101.18;38.03;;;11.10;39.10;;;;;;5056562;28;20077;-61
2020/12/14 05:32:40;;;;;;;108.45;35.65;;;11.10;39.00;;;;;;5056264;28;20073;-61
2020/12/14 05:35:11;;;;;;;;;;;11.20;38.50;;;;;;5060192;28;20534;-61
2020/12/14 05:37:38;;;;;;;120.10;42.20;;;11.20;38.10;;;;;;5058335;28;19979;-57
2020/12/14 05:40:13;;;;;;;118.55;40.35;;;11.20;38.00;;;;;;5056170;28;20074;-60
2020/12/14 05:42:43;;;;;;;128.88;44.97;;;11.10;38.50;;;;;;5059881;28;20429;-60
2020/12/14 05:45:13;;;;;;;122.40;45.33;;;11.00;38.80;;;;;;5044384;28;20146;-63
2020/12/14 05:47:42;;;;;;;134.20;46.15;;;11.00;38.20;;;;;;5057734;28;20180;-57
2020/12/14 05:50:10;;;;;;;130.35;46.13;;;11.00;38.70;;;;;;5059640;28;20428;-58
2020/12/14 05:52:48;;;;;;;147.13;47.88;;;11.00;38.60;;;;;;5053797;28;20161;-57
2020/12/14 05:55:20;;;;;;;149.27;49.47;;;10.90;38.70;;;;;;5062915;28;20076;-61
2020/12/14 05:57:51;;;;;;;151.68;50.13;;;10.90;38.80;;;;;;5061813;28;20084;-60
2020/12/14 06:00:18;;;;;;;146.85;51.13;;;10.90;38.60;;;;;;5061385;28;20089;-57
2020/12/14 06:02:45;;;;;;;143.38;49.67;;;10.90;40.00;;;;;;5059027;28;20151;-59
2020/12/14 06:05:12;;;;;;;146.13;49.70;;;10.90;40.00;;;;;;5059429;28;20097;-61
2020/12/14 06:07:39;;;;;;;171.68;52.50;;;11.00;39.60;;;;;;5054572;28;20429;-60
2020/12/14 06:10:12;;;;;;;148.15;54.03;;;11.00;40.00;;;;;;5058020;28;20152;-61
2020/12/14 06:12:45;;;;;;;181.85;56.55;;;11.00;40.20;;;;;;5054028;28;20526;-61
2020/12/14 06:15:14;;;;;;;177.48;61.30;;;11.00;40.80;;;;;;5058763;28;20569;-59
2020/12/14 06:17:41;;;;;;;201.27;61.20;;;11.00;40.60;;;;;;5040439;28;20109;-61
2020/12/14 06:20:23;;;;;;;197.80;59.88;;;10.90;40.60;;;;;;5056097;28;20489;-60
2020/12/14 06:23:04;;;;;;;209.60;61.92;;;10.90;40.90;;;;;;5056284;28;20157;-59
2020/12/14 06:25:32;;;;;;;198.73;60.83;;;10.80;40.70;;;;;;5054147;28;21534;-59
2020/12/14 06:28:30;;;;;;;195.77;63.38;;;10.90;39.70;;;;;;5068454;28;20170;-59
2020/12/14 06:30:58;;;;;;;178.93;60.88;;;10.90;40.00;;;;;;5070586;28;20081;-60
2020/12/14 06:33:35;;;;;;;183.40;60.22;;;11.00;40.60;;;;;;5054063;28;20089;-60
2020/12/14 06:36:20;;;;;;;206.98;60.92;;;11.00;40.00;;;;;;5069026;28;20110;-59
2020/12/14 06:38:51;;;;;;;218.13;64.43;;;11.00;39.80;;;;;;5071309;28;20068;-59
2020/12/14 06:41:23;;;;;;;197.93;66.13;;;11.00;39.70;;;;;;5071918;28;20069;-60
2020/12/14 06:44:04;;;;;;;190.45;65.15;;;11.00;40.50;;;;;;5055241;28;20093;-59
2020/12/14 06:46:35;;;;;;;206.07;68.95;;;11.00;41.90;;;;;;5071818;28;20077;-63
2020/12/14 06:49:02;;;;;;;209.95;66.50;;;10.90;41.00;;;;;;5071977;28;20126;-59
2020/12/14 06:51:50;;;;;;;198.27;67.65;;;10.90;40.70;;;;;;5071875;28;20073;-61
2020/12/14 06:54:46;;;;;;;229.73;70.07;;;10.80;41.20;;;;;;5071129;28;20069;-58
2020/12/14 06:57:19;;;;;;;215.25;67.47;;;10.90;41.00;;;;;;5071287;28;20073;-59
2020/12/14 06:59:53;;;;;;;230.25;72.13;;;10.90;40.00;;;;;;5052614;28;20077;-59
2020/12/14 07:02:35;;;;;;;232.05;68.40;;;10.90;39.70;;;;;;5071272;28;20168;-58
2020/12/14 07:05:02;;;;;;;216.73;68.75;;;10.90;39.40;;;;;;5069486;28;20120;-60
2020/12/14 07:07:30;;;;;;;203.25;66.82;;;11.00;39.80;;;;;;5069911;28;20139;-57
2020/12/14 07:10:16;;;;;;;196.50;66.90;;;10.90;40.00;;;;;;5070010;28;20448;-61
2020/12/14 07:12:44;;;;;;;207.80;66.72;;;11.00;40.80;;;;;;5052102;28;20077;-59
2020/12/14 07:15:23;;;;;;;208.68;66.63;;;11.00;41.70;;;;;;5070481;28;20096;-58
2020/12/14 07:18:06;;;;;;;209.85;66.30;;;10.90;42.10;;;;;;5052160;28;20541;-61
2020/12/14 07:20:33;;;;;;;192.95;64.18;;;10.90;42.20;;;;;;5070054;28;20413;-58
2020/12/14 07:23:07;;;;;;;215.05;67.65;;;10.80;42.10;;;;;;5070206;28;20529;-59
2020/12/14 07:25:34;;;;;;;211.93;65.70;;;10.80;42.50;;;;;;5069056;28;20570;-60
2020/12/14 07:28:03;;;;;;;205.82;67.75;;;10.80;43.10;;;;;;5082326;28;20158;-61
2020/12/14 07:30:30;;;;;;;209.00;66.60;;;10.80;42.70;;;;;;5052394;28;20081;-60
2020/12/14 07:32:59;;;;;;;220.63;64.82;;;10.80;43.10;;;;;;5068468;28;20065;-60
2020/12/14 07:35:26;;;;;;;217.98;68.35;;;10.80;43.50;;;;;;5068937;28;20160;-62
2020/12/14 07:37:52;;;;;;;203.57;68.50;;;10.80;43.90;;;;;;5071349;28;20157;-61
2020/12/14 07:40:19;;;;;;;200.82;68.20;;;10.80;44.40;;;;;;5051936;28;20087;-57
2020/12/14 07:42:45;;;;;;;;;;;10.80;44.10;;;;;;5068462;28;20069;-58
2020/12/14 07:45:15;;;;;;;195.32;65.80;;;10.80;45.00;;;;;;5051066;28;20072;-59
2020/12/14 07:47:44;;;;;;;209.30;68.22;;;10.80;44.50;;;;;;5068998;28;20160;-59
2020/12/14 07:50:22;;;;;;;207.48;70.35;;;10.80;44.60;;;;;;5050874;28;20075;-60
2020/12/14 07:52:50;;;;;;;216.48;70.00;;;10.80;43.60;;;;;;5069442;28;20073;-60
2020/12/14 07:55:17;;;;;;;213.30;71.35;;;10.90;43.70;;;;;;5063621;28;20110;-60
2020/12/14 07:57:46;;;;;;;202.10;69.60;;;10.80;43.90;;;;;;5067738;28;20073;-61
2020/12/14 08:00:19;;;;;;;212.60;71.97;;;10.90;43.60;;;;;;5069380;28;20069;-59
2020/12/14 08:02:45;;;;;;;206.50;70.88;;;10.90;41.40;;;;;;5068601;28;20069;-61
2020/12/14 08:05:17;;;;;;;214.23;74.22;;;10.90;42.70;;;;;;5049591;28;20093;-61
2020/12/14 08:07:47;;;;;;;206.05;77.10;;;10.90;42.60;;;;;;5063904;28;20069;-60
2020/12/14 08:10:14;;;;;;;208.52;75.50;;;10.90;41.90;;;;;;5052630;28;20073;-60
2020/12/14 08:12:42;;;;;;;197.13;73.57;;;10.90;41.60;;;;;;5045896;28;20073;-59
2020/12/14 08:15:18;;;;;;;217.43;74.32;;;11.00;42.00;;;;;;5051389;28;20077;-58
2020/12/14 08:17:45;;;;;;;194.75;73.72;;;11.00;41.80;;;;;;5067340;28;20122;-62
2020/12/14 08:20:32;;;;;;;203.73;75.82;;;11.00;42.20;;;;;;5049664;28;20097;-61
2020/12/14 08:23:00;;;;;;;185.73;69.47;;;11.00;42.70;;;;;;5049072;28;20084;-60
2020/12/14 08:25:32;;;;;;;206.80;72.43;;;11.00;42.00;;;;;;5068830;28;20112;-61
2020/12/14 08:28:04;;;;;;;189.00;72.63;;;11.00;42.90;;;;;;5057504;28;20201;-60
2020/12/14 08:30:34;;;;;;;198.18;71.18;;;11.10;42.50;;;;;;5048949;28;20085;-60
2020/12/14 08:33:19;;;;;;;172.73;67.72;;;11.00;41.20;;;;;;5049745;28;20077;-58
2020/12/14 08:35:53;;;;;;;178.52;68.40;;;11.10;41.00;;;;;;5049454;28;20077;-60
2020/12/14 08:38:23;;;;;;;172.80;67.55;;;11.10;41.30;;;;;;5049276;28;20072;-59
2020/12/14 08:40:54;;;;;;;178.15;65.95;;;11.00;43.10;;;;;;5031159;28;20080;-59
2020/12/14 08:43:25;;;;;;;181.55;65.95;;;11.00;42.50;;;;;;5033032;28;20069;-60
2020/12/14 08:46:08;;;;;;;182.65;66.38;;;10.90;41.50;;;;;;5016502;28;20142;-62
2020/12/14 08:48:56;;;;;;;183.70;65.03;;;10.90;41.20;;;;;;5048594;28;20073;-60
2020/12/14 08:51:33;;;;;;;167.90;64.45;;;10.90;40.60;;;;;;5049736;28;20070;-60
2020/12/14 08:54:17;;;;;;;144.45;58.78;;;11.00;40.80;;;;;;5029779;28;20086;-60
2020/12/14 08:56:44;;;;;;;142.60;58.63;;;10.90;39.60;;;;;;5049783;28;20500;-59
2020/12/14 08:59:23;;;;;;;152.95;58.75;;;10.80;39.60;;;;;;5050071;28;20153;-60
2020/12/14 09:02:10;;;;;;;158.07;57.78;;;10.90;39.90;;;;;;5049232;28;20081;-61
2020/12/14 09:04:39;;;;;;;;;;;10.90;40.50;;;;;;5048620;28;20481;-60
2020/12/14 09:07:06;;;;;;;137.65;52.08;;;10.90;40.00;;;;;;5029847;28;19965;-60
2020/12/14 09:09:38;;;;;;;137.60;55.05;;;10.90;39.60;;;;;;5030546;28;20070;-60
2020/12/14 09:12:17;;;;;;;148.52;54.53;;;10.80;39.20;;;;;;5031412;28;20990;-61
2020/12/14 09:14:43;;;;;;;149.05;53.35;;;10.80;40.60;;;;;;5048206;28;20070;-59
2020/12/14 09:17:16;;;;;;;;;;;10.80;41.50;;;;;;5048636;28;20518;-60
2020/12/14 09:19:52;;;;;;;148.23;55.88;;;10.80;41.10;;;;;;5049522;28;19984;-61
2020/12/14 09:22:25;;;;;;;137.98;56.13;;;10.80;41.00;;;;;;5049677;28;20620;-62
2020/12/14 09:24:52;;;;;;;172.45;59.30;;;10.80;40.90;;;;;;5050036;28;20162;-59
2020/12/14 09:27:19;;;;;;;144.35;56.22;;;10.70;41.90;;;;;;5049495;28;20116;-60
2020/12/14 09:29:46;;;;;;;151.95;57.15;;;10.60;41.40;;;;;;5056393;28;20077;-62
2020/12/14 09:32:15;;;;;;;149.55;56.03;;;10.60;42.00;;;;;;5078464;28;20080;-60
2020/12/14 09:34:43;;;;;;;153.45;55.10;;;10.50;42.30;;;;;;5055189;28;20090;-58
2020/12/14 09:37:11;;;;;;;142.98;56.92;;;10.40;42.60;;;;;;5068248;28;20092;-61
2020/12/14 09:39:39;;;;;;;140.38;53.70;;;10.40;42.70;;;;;;5063391;28;20077;-66
2020/12/14 09:42:06;;;;;;;145.43;57.55;;;10.50;42.80;;;;;;5057920;28;20449;-60
2020/12/14 09:44:32;;;;;;;167.38;57.65;;;10.40;42.90;;;;;;5072433;28;20099;-61
2020/12/14 09:47:01;;;;;;;152.27;59.60;;;10.40;43.60;;;;;;5058957;28;20073;-60
2020/12/14 09:49:30;;;;;;;153.35;57.92;;;10.40;43.30;;;;;;5075140;28;20131;-58
2020/12/14 09:51:57;;;;;;;155.02;56.50;;;10.20;42.90;;;;;;5050960;28;20111;-60
2020/12/14 09:54:24;;;;;;;146.52;56.33;;;10.40;43.10;;;;;;5054445;28;20196;-61
2020/12/14 09:56:51;;;;;;;157.27;57.40;;;10.40;43.80;;;;;;5038114;28;20077;-61
2020/12/14 09:59:17;;;;;;;;;;;10.40;44.30;;;;;;5073462;28;20166;-62
2020/12/14 10:01:43;;;;;;;155.10;58.97;;;10.30;43.90;;;;;;5072073;28;20427;-60
2020/12/14 10:04:09;;;;;;;;;;;10.30;44.00;;;;;;5077680;28;20132;-61
2020/12/14 10:06:36;;;;;;;140.98;55.17;;;10.30;43.40;;;;;;5070921;28;19963;-61
2020/12/14 10:09:04;;;;;;;146.57;55.55;;;10.30;43.20;;;;;;5076831;28;20219;-61
2020/12/14 10:11:33;;;;;;;140.88;54.90;;;10.30;43.90;;;;;;5053268;28;20125;-62
2020/12/14 10:14:01;;;;;;;134.55;53.25;;;10.20;43.30;;;;;;5070681;28;20088;-61
2020/12/14 10:16:27;;;;;;;134.70;50.88;;;10.20;43.10;;;;;;5075985;28;20518;-62
2020/12/14 10:18:54;;;;;;;143.57;51.20;;;10.20;42.40;;;;;;5072233;28;20073;-61
2020/12/14 10:21:20;;;;;;;;;;;10.20;42.20;;;;;;5071049;28;20156;-62
2020/12/14 10:23:47;;;;;;;138.55;52.53;;;10.20;42.40;;;;;;5072150;28;20000;-62
2020/12/14 10:26:16;;;;;;;134.95;51.42;;;10.20;43.00;;;;;;5071212;28;20080;-59
2020/12/14 10:28:43;;;;;;;136.95;52.67;;;10.20;43.10;;;;;;5037593;28;20140;-61
2020/12/14 10:31:09;;;;;;;;;;;10.20;43.60;;;;;;5069633;28;20208;-61
2020/12/14 10:33:37;;;;;;;156.95;53.22;;;10.20;45.30;;;;;;5071539;28;19972;-64
2020/12/14 10:36:08;;;;;;;125.32;51.63;;;10.20;44.90;;;;;;5070844;28;20080;-61
2020/12/14 10:38:35;;;;;;;140.55;53.88;;;10.20;45.10;;;;;;5052440;28;20529;-60
2020/12/14 10:41:02;;;;;;;131.20;54.13;;;10.20;45.60;;;;;;5069914;28;20081;-59
2020/12/14 10:43:30;;;;;;;143.30;56.55;;;10.10;45.20;;;;;;5053634;28;20410;-61
2020/12/14 10:45:57;;;;;;;139.50;57.70;;;10.10;44.90;;;;;;5073149;28;20108;-61
2020/12/14 10:48:23;;;;;;;147.07;55.45;;;10.10;44.70;;;;;;5072280;28;20073;-59
2020/12/14 10:50:50;;;;;;;;;;;10.10;44.50;;;;;;5074246;28;20073;-61
2020/12/14 10:53:16;;;;;;;145.52;56.30;;;10.00;44.00;;;;;;5072920;28;20363;-61
2020/12/14 10:55:43;;;;;;;148.35;55.42;;;10.10;44.10;;;;;;5053648;28;20092;-61
2020/12/14 10:58:09;;;;;;;;;;;10.10;44.50;;;;;;5072130;28;20077;-61
2020/12/14 11:00:35;;;;;;;135.30;53.72;;;10.00;45.20;;;;;;5054047;28;20422;-61
2020/12/14 11:03:02;;;;;;;153.20;56.25;;;10.00;44.80;;;;;;5069665;28;20105;-63
2020/12/14 11:05:30;;;;;;;143.38;54.03;;;10.00;45.10;;;;;;5071968;28;20187;-61
2020/12/14 11:07:58;;;;;;;158.00;57.72;;;9.90;46.50;;;;;;5051512;28;20066;-60
2020/12/14 11:10:24;;;;;;;164.20;59.53;;;9.90;46.30;;;;;;5069897;28;20121;-59
2020/12/14 11:12:51;;;;;;;183.07;60.72;;;9.80;45.30;;;;;;5071967;28;21392;-57
2020/12/14 11:15:17;;;;;;;;;;;9.90;45.20;;;;;;5070930;28;20077;-61
2020/12/14 11:17:44;;;;;;;171.05;61.30;;;9.90;45.60;;;;;;5071050;28;19961;-61
2020/12/14 11:20:12;;;;;;;168.70;62.45;;;9.80;45.60;;;;;;5069247;28;20065;-59
2020/12/14 11:22:41;;;;;;;165.13;60.50;;;9.80;45.90;;;;;;5051865;28;20077;-60
2020/12/14 11:25:11;;;;;;;158.68;63.10;;;9.80;46.40;;;;;;5053376;28;20199;-61
2020/12/14 11:27:38;;;;;;;160.52;61.50;;;9.80;47.20;;;;;;5068954;28;20108;-61
2020/12/14 11:30:07;;;;;;;;;;;9.80;46.60;;;;;;5069484;28;20074;-59
2020/12/14 11:32:34;;;;;;;165.02;59.67;;;9.80;47.10;;;;;;5068541;28;20042;-60
2020/12/14 11:35:00;;;;;;;161.05;59.58;;;9.80;47.40;;;;;;5051898;28;20065;-61
2020/12/14 11:37:27;;;;;;;179.25;62.85;;;9.80;47.00;;;;;;5070891;28;20084;-62
2020/12/14 11:39:53;;;;;;;179.10;62.33;;;9.70;47.00;;;;;;5051113;28;20488;-60
2020/12/14 11:42:20;;;;;;;185.40;65.95;;;9.60;47.10;;;;;;5070043;28;20081;-58
2020/12/14 11:44:46;;;;;;;;;;;9.60;47.30;;;;;;5071782;28;20092;-60
2020/12/14 11:47:12;;;;;;;178.88;64.50;;;9.60;46.30;;;;;;5069922;28;19956;-59
2020/12/14 11:49:40;;;;;;;;;;;9.60;46.80;;;;;;5070094;28;20418;-57
2020/12/14 11:52:08;;;;;;;188.35;67.05;;;9.60;47.80;;;;;;5067627;28;20000;-59
2020/12/14 11:54:34;;;;;;;181.82;64.25;;;9.60;47.90;;;;;;5069166;28;20074;-56
2020/12/14 11:57:01;;;;;;;;;;;9.50;47.90;;;;;;5069373;28;20076;-60
2020/12/14 11:59:27;;;;;;;169.00;64.78;;;9.50;48.30;;;;;;5071820;28;19957;-57
2020/12/14 12:01:54;;;;;;;173.80;68.75;;;9.40;47.60;;;;;;5068335;28;20080;-58
2020/12/14 12:04:21;;;;;;;190.73;72.70;;;9.30;47.90;;;;;;5068951;28;20101;-60
2020/12/14 12:06:48;;;;;;;191.57;72.63;;;9.30;47.30;;;;;;5069696;28;20080;-60
2020/12/14 12:09:14;;;;;;;192.75;76.10;;;9.30;47.50;;;;;;5069589;28;20069;-58
2020/12/14 12:11:42;;;;;;;183.27;74.20;;;9.20;47.20;;;;;;5072049;28;20069;-58
2020/12/14 12:14:08;;;;;;;208.10;75.35;;;9.30;47.40;;;;;;5071162;28;20809;-59
2020/12/14 12:16:35;;;;;;;194.48;76.40;;;9.30;47.20;;;;;;5070612;28;20073;-60
2020/12/14 12:19:01;;;;;;;216.90;77.63;;;9.80;73.10;;;;;;5068212;28;20085;-61
2020/12/14 12:21:28;;;;;;;213.20;77.18;;;9.40;47.70;;;;;;5048342;28;20065;-60
2020/12/14 12:23:54;;;;;;;;;;;9.40;48.10;;;;;;5071011;28;20085;-61
2020/12/14 12:26:20;;;;;;;193.18;72.88;;;9.40;48.40;;;;;;5069124;28;19961;-58
2020/12/14 12:28:47;;;;;;;213.77;78.13;;;9.40;47.80;;;;;;5073499;28;20560;-58
2020/12/14 12:31:13;;;;;;;;;;;9.40;48.10;;;;;;5070761;28;20069;-60
2020/12/14 12:33:41;;;;;;;209.13;77.07;;;9.40;48.30;;;;;;5084949;28;20014;-60
2020/12/14 12:36:09;;;;;;;205.48;79.07;;;9.30;48.20;;;;;;5071630;28;20069;-58
2020/12/14 12:38:35;;;;;;;217.10;78.72;;;9.30;48.10;;;;;;5068888;28;20080;-58
2020/12/14 12:41:01;;;;;;;;;;;9.30;48.50;;;;;;5074113;28;20073;-60
2020/12/14 12:43:28;;;;;;;231.48;79.97;;;9.20;49.10;;;;;;5074485;28;20354;-58